sensor_id;sensor_type;location;lat;lon;timestamp;P1;durP1;ratioP1;P2;durP2;ratioP2
29240;SDS011;16268;49.880;8.648;2022-07-29T00:01:22;4.75;;;1.80;;
29240;SDS011;16268;49.880;8.648;2022-07-29T00:03:47;5.30;;;1.35;;
29240;SDS011;16268;49.880;8.648;2022-07-29T00:06:13;4.97;;;1.42;;
29240;SDS011;16268;49.880;8.648;2022-07-29T00:08:39;4.43;;;1.42;;
29240;SDS011;16268;49.880;8.648;2022-07-29T00:11:05;5.82;;;1.85;;
29240;SDS011;16268;49.880;8.648;2022-07-29T00:13:30;5.40;;;1.60;;
29240;SDS011;16268;49.880;8.648;2022-07-29T00:15:56;4.25;;;1.65;;
29240;SDS011;16268;49.880;8.648;2022-07-29T00:18:22;4.55;;;1.50;;
29240;SDS011;16268;49.880;8.648;2022-07-29T00:20:47;6.13;;;1.52;;
29240;SDS011;16268;49.880;8.648;2022-07-29T00:23:13;4.10;;;1.35;;
29240;SDS011;16268;49.880;8.648;2022-07-29T00:25:38;4.38;;;1.60;;
29240;SDS011;16268;49.880;8.648;2022-07-29T00:28:04;3.80;;;1.63;;
29240;SDS011;16268;49.880;8.648;2022-07-29T00:30:29;4.00;;;1.55;;
29240;SDS011;16268;49.880;8.648;2022-07-29T00:32:55;6.45;;;1.70;;
29240;SDS011;16268;49.880;8.648;2022-07-29T00:35:20;4.20;;;1.70;;
29240;SDS011;16268;49.880;8.648;2022-07-29T00:38:05;6.97;;;1.70;;
29240;SDS011;16268;49.880;8.648;2022-07-29T00:40:30;6.32;;;2.40;;
29240;SDS011;16268;49.880;8.648;2022-07-29T00:42:56;9.07;;;2.45;;
29240;SDS011;16268;49.880;8.648;2022-07-29T00:45:21;9.50;;;3.45;;
29240;SDS011;16268;49.880;8.648;2022-07-29T00:47:47;9.18;;;3.65;;
29240;SDS011;16268;49.880;8.648;2022-07-29T00:50:13;7.85;;;2.97;;
29240;SDS011;16268;49.880;8.648;2022-07-29T00:52:39;6.85;;;2.40;;
29240;SDS011;16268;49.880;8.648;2022-07-29T00:55:07;7.13;;;2.22;;
29240;SDS011;16268;49.880;8.648;2022-07-29T00:57:35;7.90;;;2.25;;
29240;SDS011;16268;49.880;8.648;2022-07-29T01:00:05;9.27;;;2.60;;
29240;SDS011;16268;49.880;8.648;2022-07-29T01:02:34;8.80;;;2.05;;
29240;SDS011;16268;49.880;8.648;2022-07-29T01:05:00;6.53;;;1.80;;
29240;SDS011;16268;49.880;8.648;2022-07-29T01:07:26;5.38;;;1.60;;
29240;SDS011;16268;49.880;8.648;2022-07-29T01:09:53;5.60;;;1.48;;
29240;SDS011;16268;49.880;8.648;2022-07-29T01:12:24;5.10;;;1.80;;
29240;SDS011;16268;49.880;8.648;2022-07-29T01:14:51;4.72;;;1.40;;
29240;SDS011;16268;49.880;8.648;2022-07-29T01:20:26;7.70;;;1.70;;
29240;SDS011;16268;49.880;8.648;2022-07-29T01:30:44;7.50;;;1.60;;
29240;SDS011;16268;49.880;8.648;2022-07-29T01:33:13;5.45;;;1.67;;
29240;SDS011;16268;49.880;8.648;2022-07-29T01:36:03;5.68;;;1.77;;
29240;SDS011;16268;49.880;8.648;2022-07-29T01:38:34;4.40;;;1.63;;
29240;SDS011;16268;49.880;8.648;2022-07-29T01:41:05;5.18;;;1.75;;
29240;SDS011;16268;49.880;8.648;2022-07-29T01:43:43;7.55;;;1.75;;
29240;SDS011;16268;49.880;8.648;2022-07-29T01:46:14;5.82;;;1.60;;
29240;SDS011;16268;49.880;8.648;2022-07-29T01:48:51;3.53;;;1.58;;
29240;SDS011;16268;49.880;8.648;2022-07-29T01:51:27;4.43;;;1.77;;
29240;SDS011;16268;49.880;8.648;2022-07-29T01:54:04;6.13;;;1.80;;
29240;SDS011;16268;49.880;8.648;2022-07-29T01:56:35;3.47;;;1.52;;
29240;SDS011;16268;49.880;8.648;2022-07-29T01:59:04;5.55;;;1.77;;
29240;SDS011;16268;49.880;8.648;2022-07-29T02:01:32;6.70;;;1.70;;
29240;SDS011;16268;49.880;8.648;2022-07-29T02:03:59;5.32;;;1.60;;
29240;SDS011;16268;49.880;8.648;2022-07-29T02:08:54;5.13;;;2.15;;
29240;SDS011;16268;49.880;8.648;2022-07-29T02:11:23;5.63;;;1.67;;
29240;SDS011;16268;49.880;8.648;2022-07-29T02:13:49;6.50;;;1.83;;
29240;SDS011;16268;49.880;8.648;2022-07-29T02:16:20;7.22;;;1.73;;
29240;SDS011;16268;49.880;8.648;2022-07-29T02:18:47;8.55;;;2.03;;
29240;SDS011;16268;49.880;8.648;2022-07-29T02:21:16;6.13;;;1.88;;
29240;SDS011;16268;49.880;8.648;2022-07-29T02:23:46;6.75;;;1.90;;
29240;SDS011;16268;49.880;8.648;2022-07-29T02:26:12;6.40;;;2.03;;
29240;SDS011;16268;49.880;8.648;2022-07-29T02:28:38;5.78;;;1.90;;
29240;SDS011;16268;49.880;8.648;2022-07-29T02:31:05;5.18;;;2.05;;
29240;SDS011;16268;49.880;8.648;2022-07-29T02:33:32;6.15;;;1.88;;
29240;SDS011;16268;49.880;8.648;2022-07-29T02:35:58;6.80;;;2.20;;
29240;SDS011;16268;49.880;8.648;2022-07-29T02:38:25;4.80;;;1.88;;
29240;SDS011;16268;49.880;8.648;2022-07-29T02:41:12;6.60;;;2.50;;
29240;SDS011;16268;49.880;8.648;2022-07-29T02:43:43;5.22;;;1.85;;
29240;SDS011;16268;49.880;8.648;2022-07-29T02:46:11;6.72;;;1.85;;
29240;SDS011;16268;49.880;8.648;2022-07-29T02:48:43;5.82;;;1.77;;
29240;SDS011;16268;49.880;8.648;2022-07-29T02:51:17;5.97;;;1.88;;
29240;SDS011;16268;49.880;8.648;2022-07-29T02:53:49;9.07;;;2.10;;
29240;SDS011;16268;49.880;8.648;2022-07-29T02:56:17;8.52;;;2.13;;
29240;SDS011;16268;49.880;8.648;2022-07-29T02:58:52;5.78;;;1.95;;
29240;SDS011;16268;49.880;8.648;2022-07-29T03:01:21;5.50;;;1.70;;
29240;SDS011;16268;49.880;8.648;2022-07-29T03:03:49;4.60;;;2.08;;
29240;SDS011;16268;49.880;8.648;2022-07-29T03:06:19;5.22;;;2.22;;
29240;SDS011;16268;49.880;8.648;2022-07-29T03:08:47;5.85;;;2.15;;
29240;SDS011;16268;49.880;8.648;2022-07-29T03:11:14;4.97;;;2.00;;
29240;SDS011;16268;49.880;8.648;2022-07-29T03:13:40;5.72;;;2.22;;
29240;SDS011;16268;49.880;8.648;2022-07-29T03:16:07;8.55;;;2.25;;
29240;SDS011;16268;49.880;8.648;2022-07-29T03:18:34;6.60;;;2.20;;
29240;SDS011;16268;49.880;8.648;2022-07-29T03:21:00;6.00;;;2.20;;
29240;SDS011;16268;49.880;8.648;2022-07-29T03:23:25;7.97;;;2.28;;
29240;SDS011;16268;49.880;8.648;2022-07-29T03:25:52;6.07;;;2.03;;
29240;SDS011;16268;49.880;8.648;2022-07-29T03:28:19;9.30;;;2.00;;
29240;SDS011;16268;49.880;8.648;2022-07-29T03:30:45;5.82;;;2.22;;
29240;SDS011;16268;49.880;8.648;2022-07-29T03:33:11;6.63;;;1.92;;
29240;SDS011;16268;49.880;8.648;2022-07-29T03:35:37;7.72;;;1.98;;
29240;SDS011;16268;49.880;8.648;2022-07-29T03:38:02;8.45;;;2.10;;
29240;SDS011;16268;49.880;8.648;2022-07-29T03:40:33;6.95;;;1.95;;
29240;SDS011;16268;49.880;8.648;2022-07-29T03:43:03;5.32;;;2.28;;
29240;SDS011;16268;49.880;8.648;2022-07-29T03:45:30;6.28;;;1.80;;
29240;SDS011;16268;49.880;8.648;2022-07-29T03:47:59;5.97;;;2.25;;
29240;SDS011;16268;49.880;8.648;2022-07-29T03:50:33;5.10;;;1.90;;
29240;SDS011;16268;49.880;8.648;2022-07-29T03:53:00;5.95;;;2.28;;
29240;SDS011;16268;49.880;8.648;2022-07-29T03:55:27;6.15;;;2.17;;
29240;SDS011;16268;49.880;8.648;2022-07-29T03:57:54;6.15;;;2.17;;
29240;SDS011;16268;49.880;8.648;2022-07-29T04:00:22;6.60;;;2.28;;
29240;SDS011;16268;49.880;8.648;2022-07-29T04:02:50;5.55;;;2.20;;
29240;SDS011;16268;49.880;8.648;2022-07-29T04:05:17;6.32;;;2.05;;
29240;SDS011;16268;49.880;8.648;2022-07-29T04:07:44;7.85;;;2.15;;
29240;SDS011;16268;49.880;8.648;2022-07-29T04:10:13;4.72;;;1.95;;
29240;SDS011;16268;49.880;8.648;2022-07-29T04:12:40;8.38;;;2.28;;
29240;SDS011;16268;49.880;8.648;2022-07-29T04:15:06;6.65;;;2.10;;
29240;SDS011;16268;49.880;8.648;2022-07-29T04:17:32;5.38;;;1.92;;
29240;SDS011;16268;49.880;8.648;2022-07-29T04:19:58;5.22;;;2.22;;
29240;SDS011;16268;49.880;8.648;2022-07-29T04:22:23;5.75;;;1.92;;
29240;SDS011;16268;49.880;8.648;2022-07-29T04:24:49;6.03;;;2.17;;
29240;SDS011;16268;49.880;8.648;2022-07-29T04:27:14;6.45;;;2.30;;
29240;SDS011;16268;49.880;8.648;2022-07-29T04:29:40;6.72;;;2.20;;
29240;SDS011;16268;49.880;8.648;2022-07-29T04:32:06;5.63;;;2.30;;
29240;SDS011;16268;49.880;8.648;2022-07-29T04:34:31;6.70;;;1.95;;
29240;SDS011;16268;49.880;8.648;2022-07-29T04:36:57;5.43;;;2.00;;
29240;SDS011;16268;49.880;8.648;2022-07-29T04:39:22;8.32;;;2.38;;
29240;SDS011;16268;49.880;8.648;2022-07-29T04:41:48;8.05;;;1.90;;
29240;SDS011;16268;49.880;8.648;2022-07-29T04:44:15;5.90;;;2.30;;
29240;SDS011;16268;49.880;8.648;2022-07-29T04:46:40;7.35;;;2.33;;
29240;SDS011;16268;49.880;8.648;2022-07-29T04:49:06;8.27;;;2.92;;
29240;SDS011;16268;49.880;8.648;2022-07-29T04:51:31;5.78;;;1.95;;
29240;SDS011;16268;49.880;8.648;2022-07-29T04:53:57;6.47;;;2.28;;
29240;SDS011;16268;49.880;8.648;2022-07-29T04:56:23;7.03;;;2.53;;
29240;SDS011;16268;49.880;8.648;2022-07-29T04:58:48;8.18;;;2.28;;
29240;SDS011;16268;49.880;8.648;2022-07-29T05:01:14;8.73;;;2.20;;
29240;SDS011;16268;49.880;8.648;2022-07-29T05:03:40;7.18;;;2.10;;
29240;SDS011;16268;49.880;8.648;2022-07-29T05:06:05;5.65;;;2.20;;
29240;SDS011;16268;49.880;8.648;2022-07-29T05:08:31;6.45;;;2.17;;
29240;SDS011;16268;49.880;8.648;2022-07-29T05:10:56;5.85;;;1.90;;
29240;SDS011;16268;49.880;8.648;2022-07-29T05:13:22;6.13;;;2.22;;
29240;SDS011;16268;49.880;8.648;2022-07-29T05:15:48;7.38;;;1.90;;
29240;SDS011;16268;49.880;8.648;2022-07-29T05:18:13;5.75;;;1.90;;
29240;SDS011;16268;49.880;8.648;2022-07-29T05:20:39;6.55;;;2.30;;
29240;SDS011;16268;49.880;8.648;2022-07-29T05:23:04;5.85;;;2.38;;
29240;SDS011;16268;49.880;8.648;2022-07-29T05:25:30;7.13;;;2.20;;
29240;SDS011;16268;49.880;8.648;2022-07-29T05:27:56;6.18;;;2.17;;
29240;SDS011;16268;49.880;8.648;2022-07-29T05:30:21;5.50;;;1.80;;
29240;SDS011;16268;49.880;8.648;2022-07-29T05:32:47;11.55;;;2.53;;
29240;SDS011;16268;49.880;8.648;2022-07-29T05:35:13;4.65;;;2.05;;
29240;SDS011;16268;49.880;8.648;2022-07-29T05:37:39;7.50;;;2.30;;
29240;SDS011;16268;49.880;8.648;2022-07-29T05:40:05;6.25;;;2.17;;
29240;SDS011;16268;49.880;8.648;2022-07-29T05:42:31;6.70;;;2.17;;
29240;SDS011;16268;49.880;8.648;2022-07-29T05:44:56;8.32;;;2.30;;
29240;SDS011;16268;49.880;8.648;2022-07-29T05:47:22;5.57;;;2.08;;
29240;SDS011;16268;49.880;8.648;2022-07-29T05:49:48;6.40;;;2.30;;
29240;SDS011;16268;49.880;8.648;2022-07-29T05:52:15;7.68;;;2.40;;
29240;SDS011;16268;49.880;8.648;2022-07-29T05:54:40;6.55;;;2.70;;
29240;SDS011;16268;49.880;8.648;2022-07-29T05:57:06;8.45;;;2.58;;
29240;SDS011;16268;49.880;8.648;2022-07-29T05:59:36;5.82;;;2.35;;
29240;SDS011;16268;49.880;8.648;2022-07-29T06:02:02;8.45;;;2.45;;
29240;SDS011;16268;49.880;8.648;2022-07-29T06:04:29;7.13;;;2.60;;
29240;SDS011;16268;49.880;8.648;2022-07-29T06:06:55;6.05;;;2.25;;
29240;SDS011;16268;49.880;8.648;2022-07-29T06:09:21;6.55;;;2.50;;
29240;SDS011;16268;49.880;8.648;2022-07-29T06:11:47;6.95;;;2.20;;
29240;SDS011;16268;49.880;8.648;2022-07-29T06:14:13;4.78;;;2.05;;
29240;SDS011;16268;49.880;8.648;2022-07-29T06:16:39;5.00;;;2.33;;
29240;SDS011;16268;49.880;8.648;2022-07-29T06:19:04;8.45;;;2.40;;
29240;SDS011;16268;49.880;8.648;2022-07-29T06:21:30;8.32;;;2.30;;
29240;SDS011;16268;49.880;8.648;2022-07-29T06:23:55;6.72;;;2.35;;
29240;SDS011;16268;49.880;8.648;2022-07-29T06:26:21;6.70;;;2.80;;
29240;SDS011;16268;49.880;8.648;2022-07-29T06:28:47;6.03;;;2.20;;
29240;SDS011;16268;49.880;8.648;2022-07-29T06:31:13;5.38;;;2.10;;
29240;SDS011;16268;49.880;8.648;2022-07-29T06:33:39;5.45;;;2.33;;
29240;SDS011;16268;49.880;8.648;2022-07-29T06:36:05;4.93;;;2.25;;
29240;SDS011;16268;49.880;8.648;2022-07-29T06:38:31;6.20;;;2.15;;
29240;SDS011;16268;49.880;8.648;2022-07-29T06:40:58;8.43;;;2.30;;
29240;SDS011;16268;49.880;8.648;2022-07-29T06:43:28;5.80;;;2.60;;
29240;SDS011;16268;49.880;8.648;2022-07-29T06:45:57;5.82;;;2.50;;
29240;SDS011;16268;49.880;8.648;2022-07-29T06:48:23;6.07;;;2.55;;
29240;SDS011;16268;49.880;8.648;2022-07-29T06:50:49;6.85;;;2.40;;
29240;SDS011;16268;49.880;8.648;2022-07-29T06:53:15;6.88;;;2.30;;
29240;SDS011;16268;49.880;8.648;2022-07-29T06:55:40;5.55;;;2.67;;
29240;SDS011;16268;49.880;8.648;2022-07-29T06:58:07;5.82;;;2.70;;
29240;SDS011;16268;49.880;8.648;2022-07-29T07:00:33;5.35;;;2.15;;
29240;SDS011;16268;49.880;8.648;2022-07-29T07:02:59;6.18;;;2.55;;
29240;SDS011;16268;49.880;8.648;2022-07-29T07:05:25;8.55;;;2.40;;
29240;SDS011;16268;49.880;8.648;2022-07-29T07:07:50;6.03;;;2.65;;
29240;SDS011;16268;49.880;8.648;2022-07-29T07:10:16;6.93;;;2.63;;
29240;SDS011;16268;49.880;8.648;2022-07-29T07:12:42;5.57;;;2.72;;
29240;SDS011;16268;49.880;8.648;2022-07-29T07:15:07;6.60;;;2.78;;
29240;SDS011;16268;49.880;8.648;2022-07-29T07:17:33;10.05;;;2.70;;
29240;SDS011;16268;49.880;8.648;2022-07-29T07:19:59;5.25;;;2.33;;
29240;SDS011;16268;49.880;8.648;2022-07-29T07:22:24;7.03;;;2.50;;
29240;SDS011;16268;49.880;8.648;2022-07-29T07:24:50;5.90;;;2.10;;
29240;SDS011;16268;49.880;8.648;2022-07-29T07:27:15;6.97;;;2.58;;
29240;SDS011;16268;49.880;8.648;2022-07-29T07:29:41;7.63;;;2.45;;
29240;SDS011;16268;49.880;8.648;2022-07-29T07:32:07;6.88;;;2.10;;
29240;SDS011;16268;49.880;8.648;2022-07-29T07:34:32;6.18;;;2.38;;
29240;SDS011;16268;49.880;8.648;2022-07-29T07:36:58;5.22;;;2.60;;
29240;SDS011;16268;49.880;8.648;2022-07-29T07:39:24;5.15;;;2.30;;
29240;SDS011;16268;49.880;8.648;2022-07-29T07:41:51;6.10;;;2.60;;
29240;SDS011;16268;49.880;8.648;2022-07-29T07:44:16;5.13;;;2.17;;
29240;SDS011;16268;49.880;8.648;2022-07-29T07:46:42;6.22;;;2.50;;
29240;SDS011;16268;49.880;8.648;2022-07-29T07:49:09;5.85;;;2.45;;
29240;SDS011;16268;49.880;8.648;2022-07-29T07:51:35;6.72;;;2.45;;
29240;SDS011;16268;49.880;8.648;2022-07-29T07:54:01;4.45;;;2.00;;
29240;SDS011;16268;49.880;8.648;2022-07-29T07:56:26;6.40;;;2.40;;
29240;SDS011;16268;49.880;8.648;2022-07-29T07:58:52;5.32;;;2.40;;
29240;SDS011;16268;49.880;8.648;2022-07-29T08:01:18;7.15;;;2.60;;
29240;SDS011;16268;49.880;8.648;2022-07-29T08:06:13;5.55;;;2.30;;
29240;SDS011;16268;49.880;8.648;2022-07-29T08:08:38;6.47;;;2.20;;
29240;SDS011;16268;49.880;8.648;2022-07-29T08:11:04;6.03;;;2.30;;
29240;SDS011;16268;49.880;8.648;2022-07-29T08:13:31;6.32;;;2.50;;
29240;SDS011;16268;49.880;8.648;2022-07-29T08:15:57;7.25;;;2.78;;
29240;SDS011;16268;49.880;8.648;2022-07-29T08:18:25;7.70;;;2.63;;
29240;SDS011;16268;49.880;8.648;2022-07-29T08:20:52;5.53;;;2.05;;
29240;SDS011;16268;49.880;8.648;2022-07-29T08:23:17;5.50;;;2.42;;
29240;SDS011;16268;49.880;8.648;2022-07-29T08:25:44;5.50;;;2.30;;
29240;SDS011;16268;49.880;8.648;2022-07-29T08:28:09;5.80;;;2.40;;
29240;SDS011;16268;49.880;8.648;2022-07-29T08:30:35;5.47;;;2.40;;
29240;SDS011;16268;49.880;8.648;2022-07-29T08:33:00;4.57;;;2.15;;
29240;SDS011;16268;49.880;8.648;2022-07-29T08:35:26;4.82;;;2.25;;
29240;SDS011;16268;49.880;8.648;2022-07-29T08:37:52;5.75;;;2.20;;
29240;SDS011;16268;49.880;8.648;2022-07-29T08:40:19;4.45;;;2.10;;
29240;SDS011;16268;49.880;8.648;2022-07-29T08:42:45;6.40;;;2.10;;
29240;SDS011;16268;49.880;8.648;2022-07-29T08:45:11;4.75;;;2.13;;
29240;SDS011;16268;49.880;8.648;2022-07-29T08:47:38;5.75;;;2.28;;
29240;SDS011;16268;49.880;8.648;2022-07-29T08:50:05;4.50;;;2.25;;
29240;SDS011;16268;49.880;8.648;2022-07-29T08:52:32;5.57;;;2.13;;
29240;SDS011;16268;49.880;8.648;2022-07-29T08:55:04;4.60;;;2.30;;
29240;SDS011;16268;49.880;8.648;2022-07-29T08:57:33;5.90;;;2.30;;
29240;SDS011;16268;49.880;8.648;2022-07-29T09:00:00;5.05;;;2.22;;
29240;SDS011;16268;49.880;8.648;2022-07-29T09:02:27;4.47;;;2.40;;
29240;SDS011;16268;49.880;8.648;2022-07-29T09:04:58;5.28;;;2.08;;
29240;SDS011;16268;49.880;8.648;2022-07-29T09:07:26;5.33;;;2.17;;
29240;SDS011;16268;49.880;8.648;2022-07-29T09:09:52;6.93;;;2.55;;
29240;SDS011;16268;49.880;8.648;2022-07-29T09:12:18;5.65;;;2.20;;
29240;SDS011;16268;49.880;8.648;2022-07-29T09:14:44;5.20;;;2.30;;
29240;SDS011;16268;49.880;8.648;2022-07-29T09:17:10;5.43;;;2.30;;
29240;SDS011;16268;49.880;8.648;2022-07-29T09:19:37;4.75;;;2.60;;
29240;SDS011;16268;49.880;8.648;2022-07-29T09:22:06;5.47;;;2.38;;
29240;SDS011;16268;49.880;8.648;2022-07-29T09:24:36;4.55;;;2.00;;
29240;SDS011;16268;49.880;8.648;2022-07-29T09:27:22;3.92;;;2.10;;
29240;SDS011;16268;49.880;8.648;2022-07-29T09:29:58;6.35;;;2.42;;
29240;SDS011;16268;49.880;8.648;2022-07-29T09:32:29;6.70;;;2.30;;
29240;SDS011;16268;49.880;8.648;2022-07-29T09:35:13;4.88;;;2.50;;
29240;SDS011;16268;49.880;8.648;2022-07-29T09:37:41;5.68;;;2.20;;
29240;SDS011;16268;49.880;8.648;2022-07-29T09:42:40;5.82;;;2.38;;
29240;SDS011;16268;49.880;8.648;2022-07-29T09:45:06;7.07;;;2.38;;
29240;SDS011;16268;49.880;8.648;2022-07-29T09:47:42;7.15;;;2.58;;
29240;SDS011;16268;49.880;8.648;2022-07-29T09:50:13;7.28;;;2.20;;
29240;SDS011;16268;49.880;8.648;2022-07-29T09:52:47;5.72;;;2.00;;
29240;SDS011;16268;49.880;8.648;2022-07-29T09:55:14;5.07;;;2.28;;
29240;SDS011;16268;49.880;8.648;2022-07-29T09:57:40;5.00;;;2.80;;
29240;SDS011;16268;49.880;8.648;2022-07-29T10:02:37;5.05;;;2.10;;
29240;SDS011;16268;49.880;8.648;2022-07-29T10:05:06;7.07;;;2.40;;
29240;SDS011;16268;49.880;8.648;2022-07-29T10:07:48;4.97;;;2.40;;
29240;SDS011;16268;49.880;8.648;2022-07-29T10:10:18;5.50;;;2.63;;
29240;SDS011;16268;49.880;8.648;2022-07-29T10:12:55;7.15;;;2.40;;
29240;SDS011;16268;49.880;8.648;2022-07-29T10:15:42;5.95;;;2.75;;
29240;SDS011;16268;49.880;8.648;2022-07-29T10:18:10;7.38;;;2.67;;
29240;SDS011;16268;49.880;8.648;2022-07-29T10:20:37;4.22;;;2.20;;
29240;SDS011;16268;49.880;8.648;2022-07-29T10:23:03;5.32;;;2.42;;
29240;SDS011;16268;49.880;8.648;2022-07-29T10:25:30;4.75;;;2.40;;
29240;SDS011;16268;49.880;8.648;2022-07-29T10:27:56;6.30;;;2.65;;
29240;SDS011;16268;49.880;8.648;2022-07-29T10:30:22;5.55;;;2.22;;
29240;SDS011;16268;49.880;8.648;2022-07-29T10:43:51;5.40;;;2.35;;
29240;SDS011;16268;49.880;8.648;2022-07-29T10:46:24;5.20;;;2.42;;
29240;SDS011;16268;49.880;8.648;2022-07-29T10:49:13;5.93;;;2.97;;
29240;SDS011;16268;49.880;8.648;2022-07-29T10:59:41;5.38;;;2.45;;
29240;SDS011;16268;49.880;8.648;2022-07-29T11:07:36;5.75;;;2.72;;
29240;SDS011;16268;49.880;8.648;2022-07-29T11:15:03;5.88;;;2.53;;
29240;SDS011;16268;49.880;8.648;2022-07-29T11:20:32;6.43;;;2.90;;
29240;SDS011;16268;49.880;8.648;2022-07-29T11:28:35;6.53;;;2.55;;
29240;SDS011;16268;49.880;8.648;2022-07-29T11:31:04;4.57;;;2.55;;
29240;SDS011;16268;49.880;8.648;2022-07-29T11:33:32;4.50;;;2.55;;
29240;SDS011;16268;49.880;8.648;2022-07-29T11:36:08;5.75;;;2.58;;
29240;SDS011;16268;49.880;8.648;2022-07-29T11:38:38;5.07;;;2.63;;
29240;SDS011;16268;49.880;8.648;2022-07-29T11:43:49;5.72;;;2.67;;
29240;SDS011;16268;49.880;8.648;2022-07-29T11:49:18;6.85;;;2.67;;
29240;SDS011;16268;49.880;8.648;2022-07-29T11:51:51;7.25;;;2.67;;
29240;SDS011;16268;49.880;8.648;2022-07-29T11:54:21;5.68;;;2.55;;
29240;SDS011;16268;49.880;8.648;2022-07-29T11:56:51;6.20;;;3.00;;
29240;SDS011;16268;49.880;8.648;2022-07-29T11:59:17;6.25;;;2.67;;
29240;SDS011;16268;49.880;8.648;2022-07-29T12:01:51;7.18;;;2.83;;
29240;SDS011;16268;49.880;8.648;2022-07-29T12:04:21;4.18;;;2.35;;
29240;SDS011;16268;49.880;8.648;2022-07-29T12:06:54;6.03;;;2.80;;
29240;SDS011;16268;49.880;8.648;2022-07-29T12:09:21;5.10;;;2.42;;
29240;SDS011;16268;49.880;8.648;2022-07-29T12:11:49;6.53;;;2.53;;
29240;SDS011;16268;49.880;8.648;2022-07-29T12:14:25;5.72;;;2.60;;
29240;SDS011;16268;49.880;8.648;2022-07-29T12:16:55;5.72;;;2.97;;
29240;SDS011;16268;49.880;8.648;2022-07-29T12:19:22;5.88;;;2.58;;
29240;SDS011;16268;49.880;8.648;2022-07-29T12:21:49;6.07;;;2.72;;
29240;SDS011;16268;49.880;8.648;2022-07-29T12:24:16;6.18;;;2.70;;
29240;SDS011;16268;49.880;8.648;2022-07-29T12:26:49;6.28;;;2.58;;
29240;SDS011;16268;49.880;8.648;2022-07-29T12:29:19;7.13;;;2.60;;
29240;SDS011;16268;49.880;8.648;2022-07-29T12:31:45;4.63;;;2.30;;
29240;SDS011;16268;49.880;8.648;2022-07-29T12:34:15;5.72;;;2.80;;
29240;SDS011;16268;49.880;8.648;2022-07-29T12:36:41;4.93;;;2.30;;
29240;SDS011;16268;49.880;8.648;2022-07-29T12:39:08;6.53;;;2.67;;
29240;SDS011;16268;49.880;8.648;2022-07-29T12:41:34;6.30;;;2.67;;
29240;SDS011;16268;49.880;8.648;2022-07-29T12:44:01;4.47;;;2.40;;
29240;SDS011;16268;49.880;8.648;2022-07-29T12:46:26;6.75;;;2.78;;
29240;SDS011;16268;49.880;8.648;2022-07-29T12:48:53;6.18;;;2.67;;
29240;SDS011;16268;49.880;8.648;2022-07-29T12:51:35;6.15;;;2.75;;
29240;SDS011;16268;49.880;8.648;2022-07-29T12:54:09;5.40;;;2.72;;
29240;SDS011;16268;49.880;8.648;2022-07-29T12:56:36;4.93;;;2.50;;
29240;SDS011;16268;49.880;8.648;2022-07-29T13:01:45;5.30;;;2.90;;
29240;SDS011;16268;49.880;8.648;2022-07-29T13:04:23;7.20;;;2.80;;
29240;SDS011;16268;49.880;8.648;2022-07-29T13:06:57;11.15;;;2.45;;
29240;SDS011;16268;49.880;8.648;2022-07-29T13:09:35;4.25;;;2.53;;
29240;SDS011;16268;49.880;8.648;2022-07-29T13:12:05;4.95;;;2.55;;
29240;SDS011;16268;49.880;8.648;2022-07-29T13:14:37;6.20;;;2.80;;
29240;SDS011;16268;49.880;8.648;2022-07-29T13:17:17;5.47;;;2.63;;
29240;SDS011;16268;49.880;8.648;2022-07-29T13:19:48;6.45;;;2.80;;
29240;SDS011;16268;49.880;8.648;2022-07-29T13:22:16;5.72;;;2.60;;
29240;SDS011;16268;49.880;8.648;2022-07-29T13:24:48;5.25;;;2.30;;
29240;SDS011;16268;49.880;8.648;2022-07-29T13:27:23;6.07;;;2.50;;
29240;SDS011;16268;49.880;8.648;2022-07-29T13:29:50;3.58;;;2.08;;
29240;SDS011;16268;49.880;8.648;2022-07-29T13:32:17;5.88;;;2.35;;
29240;SDS011;16268;49.880;8.648;2022-07-29T13:34:44;4.28;;;2.30;;
29240;SDS011;16268;49.880;8.648;2022-07-29T13:37:09;4.18;;;2.30;;
29240;SDS011;16268;49.880;8.648;2022-07-29T13:39:35;5.10;;;2.30;;
29240;SDS011;16268;49.880;8.648;2022-07-29T13:42:02;5.50;;;2.13;;
29240;SDS011;16268;49.880;8.648;2022-07-29T13:44:28;5.22;;;2.40;;
29240;SDS011;16268;49.880;8.648;2022-07-29T13:46:54;4.88;;;2.17;;
29240;SDS011;16268;49.880;8.648;2022-07-29T13:49:20;4.25;;;2.20;;
29240;SDS011;16268;49.880;8.648;2022-07-29T13:51:46;6.05;;;2.20;;
29240;SDS011;16268;49.880;8.648;2022-07-29T13:54:12;3.92;;;1.95;;
29240;SDS011;16268;49.880;8.648;2022-07-29T13:56:38;4.03;;;2.10;;
29240;SDS011;16268;49.880;8.648;2022-07-29T13:59:03;5.28;;;2.30;;
29240;SDS011;16268;49.880;8.648;2022-07-29T14:01:29;8.70;;;2.40;;
29240;SDS011;16268;49.880;8.648;2022-07-29T14:03:55;4.68;;;2.05;;
29240;SDS011;16268;49.880;8.648;2022-07-29T14:06:21;4.22;;;2.15;;
29240;SDS011;16268;49.880;8.648;2022-07-29T14:08:46;4.55;;;2.20;;
29240;SDS011;16268;49.880;8.648;2022-07-29T14:11:12;6.15;;;2.03;;
29240;SDS011;16268;49.880;8.648;2022-07-29T14:13:37;5.95;;;2.28;;
29240;SDS011;16268;49.880;8.648;2022-07-29T14:16:03;4.32;;;2.30;;
29240;SDS011;16268;49.880;8.648;2022-07-29T14:18:30;5.03;;;2.55;;
29240;SDS011;16268;49.880;8.648;2022-07-29T14:20:56;4.63;;;2.10;;
29240;SDS011;16268;49.880;8.648;2022-07-29T14:23:22;4.32;;;2.17;;
29240;SDS011;16268;49.880;8.648;2022-07-29T14:25:47;5.10;;;2.13;;
29240;SDS011;16268;49.880;8.648;2022-07-29T14:28:13;5.63;;;2.42;;
29240;SDS011;16268;49.880;8.648;2022-07-29T14:30:38;4.80;;;2.20;;
29240;SDS011;16268;49.880;8.648;2022-07-29T14:33:04;4.40;;;2.03;;
29240;SDS011;16268;49.880;8.648;2022-07-29T14:35:30;4.85;;;2.28;;
29240;SDS011;16268;49.880;8.648;2022-07-29T14:37:56;4.68;;;2.38;;
29240;SDS011;16268;49.880;8.648;2022-07-29T14:40:22;4.82;;;2.40;;
29240;SDS011;16268;49.880;8.648;2022-07-29T14:42:47;5.28;;;2.67;;
29240;SDS011;16268;49.880;8.648;2022-07-29T14:45:13;6.20;;;2.17;;
29240;SDS011;16268;49.880;8.648;2022-07-29T14:47:39;6.07;;;2.50;;
29240;SDS011;16268;49.880;8.648;2022-07-29T14:50:05;4.85;;;2.03;;
29240;SDS011;16268;49.880;8.648;2022-07-29T14:52:31;4.93;;;2.25;;
29240;SDS011;16268;49.880;8.648;2022-07-29T14:54:57;6.88;;;2.65;;
29240;SDS011;16268;49.880;8.648;2022-07-29T14:57:23;5.22;;;2.42;;
29240;SDS011;16268;49.880;8.648;2022-07-29T14:59:49;5.60;;;2.50;;
29240;SDS011;16268;49.880;8.648;2022-07-29T15:02:14;4.85;;;2.03;;
29240;SDS011;16268;49.880;8.648;2022-07-29T15:04:40;4.53;;;2.10;;
29240;SDS011;16268;49.880;8.648;2022-07-29T15:07:05;6.28;;;2.30;;
29240;SDS011;16268;49.880;8.648;2022-07-29T15:09:31;6.65;;;2.33;;
29240;SDS011;16268;49.880;8.648;2022-07-29T15:11:56;6.07;;;2.25;;
29240;SDS011;16268;49.880;8.648;2022-07-29T15:14:22;4.00;;;2.30;;
29240;SDS011;16268;49.880;8.648;2022-07-29T15:16:47;5.25;;;2.42;;
29240;SDS011;16268;49.880;8.648;2022-07-29T15:19:13;6.32;;;2.53;;
29240;SDS011;16268;49.880;8.648;2022-07-29T15:21:38;6.07;;;2.60;;
29240;SDS011;16268;49.880;8.648;2022-07-29T15:24:04;4.43;;;2.42;;
29240;SDS011;16268;49.880;8.648;2022-07-29T15:26:31;4.78;;;2.08;;
29240;SDS011;16268;49.880;8.648;2022-07-29T15:28:57;4.93;;;2.38;;
29240;SDS011;16268;49.880;8.648;2022-07-29T15:31:23;4.78;;;2.45;;
29240;SDS011;16268;49.880;8.648;2022-07-29T15:33:48;6.53;;;2.28;;
29240;SDS011;16268;49.880;8.648;2022-07-29T15:36:14;4.43;;;2.28;;
29240;SDS011;16268;49.880;8.648;2022-07-29T15:38:39;5.05;;;2.35;;
29240;SDS011;16268;49.880;8.648;2022-07-29T15:41:05;3.88;;;2.00;;
29240;SDS011;16268;49.880;8.648;2022-07-29T15:43:31;6.05;;;2.80;;
29240;SDS011;16268;49.880;8.648;2022-07-29T15:45:59;8.52;;;3.15;;
29240;SDS011;16268;49.880;8.648;2022-07-29T15:48:44;6.47;;;2.35;;
29240;SDS011;16268;49.880;8.648;2022-07-29T15:51:10;5.88;;;3.00;;
29240;SDS011;16268;49.880;8.648;2022-07-29T15:53:36;4.57;;;2.53;;
29240;SDS011;16268;49.880;8.648;2022-07-29T15:56:02;7.22;;;2.60;;
29240;SDS011;16268;49.880;8.648;2022-07-29T15:58:28;4.00;;;2.20;;